CheckWX is a tool to help pilots better visualize weather data.  It is not intended as a substitute for an official pre-flight weather briefing.

03:16:52 UTC

KRIL TAF
Rifle Garfield County Airport
Rifle, Colorado, USA
KRIL 180013Z 1800/1824 26010KT P6SM SCT110 FM180200 23010KT P6SM FEW120 FEW250 FM180400 11003KT P6SM FEW120 FEW250 FM181200 VRB03KT P6SM FEW100 FEW250 FM181800 25010KT P6SM FEW090 FEW180 FM182000 24015G25KT P6SM FEW100 FEW200

Sep-18@
00:00 UTC

Sep-18 @ 00:00 UTC

Sep-18@
02:00 UTC

Sep-18 @ 02:00 UTC

KRIL 180013Z 1800/1824 26010KT P6SM SCT110

Expired

Wind
  • 260° at 10 KTS
Cloud Levels
  • Scattered at 11,000' AGL

Sep-18@
02:00 UTC

Sep-18 @ 02:00 UTC

Sep-18@
04:00 UTC

Sep-18 @ 04:00 UTC

FM180200 23010KT P6SM FEW120 FEW250

From

From Standard forecast or significant change

Wind
  • 230° at 10 KTS
Cloud Levels
  • Few at 12,000' AGL
  • Few at 25,000' AGL

Sep-18@
04:00 UTC

Sep-18 @ 04:00 UTC

Sep-18@
12:00 UTC

Sep-18 @ 12:00 UTC

FM180400 11003KT P6SM FEW120 FEW250

From

From Standard forecast or significant change

Wind
  • 110° at 3 KTS
Cloud Levels
  • Few at 12,000' AGL
  • Few at 25,000' AGL

Sep-18@
12:00 UTC

Sep-18 @ 12:00 UTC

Sep-18@
18:00 UTC

Sep-18 @ 18:00 UTC

FM181200 VRB03KT P6SM FEW100 FEW250

From

From Standard forecast or significant change

Wind
  • Variable at 3 KTS
Cloud Levels
  • Few at 10,000' AGL
  • Few at 25,000' AGL

Sep-18@
18:00 UTC

Sep-18 @ 18:00 UTC

Sep-18@
20:00 UTC

Sep-18 @ 20:00 UTC

FM181800 25010KT P6SM FEW090 FEW180

From

From Standard forecast or significant change

Wind
  • 250° at 10 KTS
Cloud Levels
  • Few at 9,000' AGL
  • Few at 18,000' AGL

Sep-18@
20:00 UTC

Sep-18 @ 20:00 UTC

Sep-19@
00:00 UTC

Sep-19 @ 00:00 UTC

FM182000 24015G25KT P6SM FEW100 FEW200

From

From Standard forecast or significant change

Wind
  • 240° at 15 KTS
  • {Gusting to 25 KTS
Cloud Levels
  • Few at 10,000' AGL
  • Few at 20,000' AGL